Pagrindinis puslapis
METAR-TAF:

METAR-TAF

Oro uostai :

Tirupati, Indija

platuma: 13-38-16N, ilguma: 79-32-50E, Aukštis: 107 m

Dabartinis oras

Ataskaita buvo paskelbta 36 minutes, ne 02:00 UTC
Ramus vėjas
Temperatūra 24°C
Drėgmė 94%
Slėgis 1013 hPa
Matomumas: 3000 m
Mažai debesys ne aukštis 2000 ft
migla

METAR: VOTP 130200Z 00000KT 3000 HZ FEW020 24/23 Q1013

Laikas: 08:06 (02:36 UTC)

Prognozė

Ataskaita buvo paskelbta 3 valandos ir 36 minutes, ne 23:00 UTC
Prognozė galioja nuo 13 metu 00 UTC su 13 metu 09 UTC
Vėjas 5 kt iš Rytų
Matomumas: 3000 m
Išsisklaidę debesys ne aukštis 1500 ft
rūkana
Laikinai
nuo 13 metu 00 UTC su 13 metu 03 UTC
Vėjas 3 kt nuo kintamojo kryptimis
Matomumas: 1500 m
Išsisklaidę debesys ne aukštis 1000 ft
rūkana
Tapsmas
nuo 13 metu 05 UTC su 13 metu 07 UTC
Vėjas 10 kt iš Rytų
Matomumas: 5000 m
Išsisklaidę debesys ne aukštis 1500 ft
Išsisklaidę debesys ne aukštis 2500 ft
migla

TAF: VOTP 122300Z 1300/1309 10005KT 3000 BR SCT015 TEMPO 1300/1303 VRB03KT 1500 BR SCT010 BECMG 1305/1307 08010KT 5000 HZ SCT015 SCT025

Orai ataskaitas ir orų prognozės (METAR, TAF).

turimą stotys yra geltonos ir raudonos taškus žemėlapyje.

Perkelti pele per norėdami pamatyti stoties vardą.

Tada spustelėkite, norėdami matyti oro stebėjimo ir prognozės.

Norėdami pakeisti žemėlapį: spustelėkite ant žalios mygtukų su juodo kryžiaus žemyn,; žalią mygtuką su brūkšneliu, jei norite nutolinti; arba žalių rodyklių gretimoms žemėlapius.


METAR-TAF: